Blake Denton — WDC7496 — position and weather

sailwx.info

Track history (hours):
 
Tides and Currents Weather Stations Pressure Air Temp Water Temp Dewpoint Dewpoint Depression Visibility Wind Speed Wind Dir Waves Ship Positions

Blake Denton

Owner: Marquette Transportation, Paducah, KY. More information available from US FCC via Universal Licensing System and Coast Guard Vessel Documentation Center.

Last reported at 2016-Mar-19 15:29 UTC. Time now 2016-May-05 08:36 UTC.
Position N 32°04' W 091°04'.
Warning: this ship's position is 46 days out of date.

Date/timePositionNaut miles runAvg speedWind from/ knotsBaromVisibWave heightAir tempDewpointWater temp
2016-Mar-19 15:29N 32°04' W 091°04'4 4.8
2016-Mar-19 14:33N 32°08' W 091°01'1010.5
2016-Mar-19 13:33N 32°17' W 090°56'4 4.2
2016-Mar-19 12:33N 32°21' W 090°58'1 0.7
2016-Mar-19 11:33N 32°21' W 090°59'1 0.6
2016-Mar-19 10:33N 32°21' W 090°60'5 4.6
2016-Mar-19 09:33N 32°26' W 091°02'7 6.4
2016-Mar-19 08:31N 32°31' W 091°06'  
2016-Mar-11 04:27N 32°43' W 091°03'4 4.7
2016-Mar-11 03:33N 32°40' W 091°07'5 4.5
2016-Mar-11 02:33N 32°36' W 091°08'5 5.1
2016-Mar-11 01:33N 32°31' W 091°07'5 4.8
2016-Mar-11 00:33N 32°27' W 091°04'5 4.8
2016-Mar-10 23:33N 32°23' W 091°00'4 4.4
2016-Mar-10 22:33N 32°21' W 090°56'4 3.6
2016-Mar-10 21:33N 32°17' W 090°57'5 5.1
2016-Mar-10 20:33N 32°12' W 090°59'5 4.7
2016-Mar-10 19:33N 32°08' W 091°01'5 4.9
2016-Mar-10 18:33N 32°08' W 091°06'5 5.3
2016-Mar-10 17:33N 32°03' W 091°04'  
Track history (hours):
 
Tides and Currents Weather Stations Pressure Air Temp Water Temp Dewpoint Dewpoint Depression Visibility Wind Speed Wind Dir Waves Ship Positions

Blake Denton

Owner: Marquette Transportation, Paducah, KY. More information available from US FCC via Universal Licensing System and Coast Guard Vessel Documentation Center.

Last reported at 2016-Mar-19 15:29 UTC. Time now 2016-May-05 08:36 UTC.
Position N 32°04' W 091°04'.
Warning: this ship's position is 46 days out of date.

Date/timePositionNaut miles runAvg speedWind from/ knotsBaromVisibWave heightAir tempDewpointWater temp
2016-Mar-19 15:29N 32°04' W 091°04'4 4.8
2016-Mar-19 14:33N 32°08' W 091°01'1010.5
2016-Mar-19 13:33N 32°17' W 090°56'4 4.2
2016-Mar-19 12:33N 32°21' W 090°58'1 0.7
2016-Mar-19 11:33N 32°21' W 090°59'1 0.6
2016-Mar-19 10:33N 32°21' W 090°60'5 4.6
2016-Mar-19 09:33N 32°26' W 091°02'7 6.4
2016-Mar-19 08:31N 32°31' W 091°06'  
2016-Mar-11 04:27N 32°43' W 091°03'4 4.7
2016-Mar-11 03:33N 32°40' W 091°07'5 4.5
2016-Mar-11 02:33N 32°36' W 091°08'5 5.1
2016-Mar-11 01:33N 32°31' W 091°07'5 4.8
2016-Mar-11 00:33N 32°27' W 091°04'5 4.8
2016-Mar-10 23:33N 32°23' W 091°00'4 4.4
2016-Mar-10 22:33N 32°21' W 090°56'4 3.6
2016-Mar-10 21:33N 32°17' W 090°57'5 5.1
2016-Mar-10 20:33N 32°12' W 090°59'5 4.7
2016-Mar-10 19:33N 32°08' W 091°01'5 4.9
2016-Mar-10 18:33N 32°08' W 091°06'5 5.3
2016-Mar-10 17:33N 32°03' W 091°04'  

Dump ship's entire track history